sensor_id;sensor_type;location;lat;lon;timestamp;temperature;humidity
20722;DHT22;10522;52.198;9.890;2023-08-24T00:00:41;15.70;99.90
20722;DHT22;10522;52.198;9.890;2023-08-24T00:03:08;15.70;99.90
20722;DHT22;10522;52.198;9.890;2023-08-24T00:05:37;15.70;99.90
20722;DHT22;10522;52.198;9.890;2023-08-24T00:08:04;15.70;99.90
20722;DHT22;10522;52.198;9.890;2023-08-24T00:10:30;15.70;99.90
20722;DHT22;10522;52.198;9.890;2023-08-24T00:12:55;15.70;99.90
20722;DHT22;10522;52.198;9.890;2023-08-24T00:15:21;15.70;99.90
20722;DHT22;10522;52.198;9.890;2023-08-24T00:17:47;15.70;99.90
20722;DHT22;10522;52.198;9.890;2023-08-24T00:20:13;15.60;99.90
20722;DHT22;10522;52.198;9.890;2023-08-24T00:22:39;15.60;99.90
20722;DHT22;10522;52.198;9.890;2023-08-24T00:25:08;15.50;99.90
20722;DHT22;10522;52.198;9.890;2023-08-24T00:27:35;15.50;99.90
20722;DHT22;10522;52.198;9.890;2023-08-24T00:30:03;15.30;99.90
20722;DHT22;10522;52.198;9.890;2023-08-24T00:32:35;15.40;99.90
20722;DHT22;10522;52.198;9.890;2023-08-24T00:35:05;15.60;99.90
20722;DHT22;10522;52.198;9.890;2023-08-24T00:37:33;15.70;99.90
20722;DHT22;10522;52.198;9.890;2023-08-24T00:40:00;15.70;99.90
20722;DHT22;10522;52.198;9.890;2023-08-24T00:42:30;15.60;99.90
20722;DHT22;10522;52.198;9.890;2023-08-24T00:44:57;15.50;99.90
20722;DHT22;10522;52.198;9.890;2023-08-24T00:47:23;15.50;99.90
20722;DHT22;10522;52.198;9.890;2023-08-24T00:49:50;15.50;99.90
20722;DHT22;10522;52.198;9.890;2023-08-24T00:52:16;15.40;99.90
20722;DHT22;10522;52.198;9.890;2023-08-24T00:54:43;15.50;99.90
20722;DHT22;10522;52.198;9.890;2023-08-24T00:57:09;15.60;99.90
20722;DHT22;10522;52.198;9.890;2023-08-24T00:59:34;15.70;99.90
20722;DHT22;10522;52.198;9.890;2023-08-24T01:02:02;15.80;99.90
20722;DHT22;10522;52.198;9.890;2023-08-24T01:04:27;15.80;99.90
20722;DHT22;10522;52.198;9.890;2023-08-24T01:06:53;15.90;99.90
20722;DHT22;10522;52.198;9.890;2023-08-24T01:09:20;15.90;99.90
20722;DHT22;10522;52.198;9.890;2023-08-24T01:15:25;16.00;99.90
20722;DHT22;10522;52.198;9.890;2023-08-24T01:17:52;16.00;99.90
20722;DHT22;10522;52.198;9.890;2023-08-24T01:20:20;16.00;99.90
20722;DHT22;10522;52.198;9.890;2023-08-24T01:22:58;16.10;99.90
20722;DHT22;10522;52.198;9.890;2023-08-24T01:25:38;16.10;99.90
20722;DHT22;10522;52.198;9.890;2023-08-24T01:28:06;16.10;99.90
20722;DHT22;10522;52.198;9.890;2023-08-24T01:30:34;16.20;99.90
20722;DHT22;10522;52.198;9.890;2023-08-24T01:33:04;16.20;99.90
20722;DHT22;10522;52.198;9.890;2023-08-24T01:35:30;16.30;99.90
20722;DHT22;10522;52.198;9.890;2023-08-24T01:37:57;15.90;99.90
20722;DHT22;10522;52.198;9.890;2023-08-24T01:40:40;15.80;99.90
20722;DHT22;10522;52.198;9.890;2023-08-24T01:43:10;15.80;99.90
20722;DHT22;10522;52.198;9.890;2023-08-24T01:45:38;15.70;99.90
20722;DHT22;10522;52.198;9.890;2023-08-24T01:48:05;15.70;99.90
20722;DHT22;10522;52.198;9.890;2023-08-24T01:50:31;15.60;99.90
20722;DHT22;10522;52.198;9.890;2023-08-24T01:52:58;15.60;99.90
20722;DHT22;10522;52.198;9.890;2023-08-24T01:55:23;15.60;99.90
20722;DHT22;10522;52.198;9.890;2023-08-24T01:57:49;15.60;99.90
20722;DHT22;10522;52.198;9.890;2023-08-24T02:00:15;15.60;99.90
20722;DHT22;10522;52.198;9.890;2023-08-24T02:02:44;15.60;99.90
20722;DHT22;10522;52.198;9.890;2023-08-24T02:05:10;15.60;99.90
20722;DHT22;10522;52.198;9.890;2023-08-24T02:07:36;15.50;99.90
20722;DHT22;10522;52.198;9.890;2023-08-24T02:10:02;15.50;99.90
20722;DHT22;10522;52.198;9.890;2023-08-24T02:12:27;15.50;99.90
20722;DHT22;10522;52.198;9.890;2023-08-24T02:14:53;15.50;99.90
20722;DHT22;10522;52.198;9.890;2023-08-24T02:17:19;15.50;99.90
20722;DHT22;10522;52.198;9.890;2023-08-24T02:19:44;15.50;99.90
20722;DHT22;10522;52.198;9.890;2023-08-24T02:22:10;15.50;99.90
20722;DHT22;10522;52.198;9.890;2023-08-24T02:24:35;15.50;99.90
20722;DHT22;10522;52.198;9.890;2023-08-24T02:27:01;15.50;99.90
20722;DHT22;10522;52.198;9.890;2023-08-24T02:29:27;15.50;99.90
20722;DHT22;10522;52.198;9.890;2023-08-24T02:31:53;15.50;99.90
20722;DHT22;10522;52.198;9.890;2023-08-24T02:34:19;15.50;99.90
20722;DHT22;10522;52.198;9.890;2023-08-24T02:36:44;15.50;99.90
20722;DHT22;10522;52.198;9.890;2023-08-24T02:39:10;15.50;99.90
20722;DHT22;10522;52.198;9.890;2023-08-24T02:41:35;15.50;99.90
20722;DHT22;10522;52.198;9.890;2023-08-24T02:44:02;15.40;99.90
20722;DHT22;10522;52.198;9.890;2023-08-24T02:46:28;15.40;99.90
20722;DHT22;10522;52.198;9.890;2023-08-24T02:48:54;15.40;99.90
20722;DHT22;10522;52.198;9.890;2023-08-24T02:51:22;15.40;99.90
20722;DHT22;10522;52.198;9.890;2023-08-24T02:53:48;15.30;99.90
20722;DHT22;10522;52.198;9.890;2023-08-24T02:56:14;15.30;99.90
20722;DHT22;10522;52.198;9.890;2023-08-24T02:58:39;15.10;99.90
20722;DHT22;10522;52.198;9.890;2023-08-24T03:01:06;15.10;99.90
20722;DHT22;10522;52.198;9.890;2023-08-24T03:03:36;15.20;99.90
20722;DHT22;10522;52.198;9.890;2023-08-24T03:06:06;15.20;99.90
20722;DHT22;10522;52.198;9.890;2023-08-24T03:08:33;15.20;99.90
20722;DHT22;10522;52.198;9.890;2023-08-24T03:11:00;15.30;99.90
20722;DHT22;10522;52.198;9.890;2023-08-24T03:13:26;15.30;99.90
20722;DHT22;10522;52.198;9.890;2023-08-24T03:15:52;15.20;99.90
20722;DHT22;10522;52.198;9.890;2023-08-24T03:18:18;15.20;99.90
20722;DHT22;10522;52.198;9.890;2023-08-24T03:20:45;15.10;99.90
20722;DHT22;10522;52.198;9.890;2023-08-24T03:23:11;15.00;99.90
20722;DHT22;10522;52.198;9.890;2023-08-24T03:25:38;14.90;99.90
20722;DHT22;10522;52.198;9.890;2023-08-24T03:28:05;14.90;99.90
20722;DHT22;10522;52.198;9.890;2023-08-24T03:30:32;14.70;99.90
20722;DHT22;10522;52.198;9.890;2023-08-24T03:32:58;14.70;99.90
20722;DHT22;10522;52.198;9.890;2023-08-24T03:35:24;14.60;99.90
20722;DHT22;10522;52.198;9.890;2023-08-24T03:37:51;14.60;99.90
20722;DHT22;10522;52.198;9.890;2023-08-24T03:40:16;14.70;99.90
20722;DHT22;10522;52.198;9.890;2023-08-24T03:42:42;14.60;99.90
20722;DHT22;10522;52.198;9.890;2023-08-24T03:45:08;14.60;99.90
20722;DHT22;10522;52.198;9.890;2023-08-24T03:47:34;14.60;99.90
20722;DHT22;10522;52.198;9.890;2023-08-24T03:49:59;14.60;99.90
20722;DHT22;10522;52.198;9.890;2023-08-24T03:52:25;14.60;99.90
20722;DHT22;10522;52.198;9.890;2023-08-24T03:54:51;14.60;99.90
20722;DHT22;10522;52.198;9.890;2023-08-24T03:57:16;14.70;99.90
20722;DHT22;10522;52.198;9.890;2023-08-24T03:59:42;14.60;99.90
20722;DHT22;10522;52.198;9.890;2023-08-24T04:02:07;14.60;99.90
20722;DHT22;10522;52.198;9.890;2023-08-24T04:04:33;14.60;99.90
20722;DHT22;10522;52.198;9.890;2023-08-24T04:06:59;14.70;99.90
20722;DHT22;10522;52.198;9.890;2023-08-24T04:09:25;14.60;99.90
20722;DHT22;10522;52.198;9.890;2023-08-24T04:11:51;14.60;99.90
20722;DHT22;10522;52.198;9.890;2023-08-24T04:14:16;14.50;99.90
20722;DHT22;10522;52.198;9.890;2023-08-24T04:16:42;14.60;99.90
20722;DHT22;10522;52.198;9.890;2023-08-24T04:19:08;14.60;99.90
20722;DHT22;10522;52.198;9.890;2023-08-24T04:21:34;14.70;99.90
20722;DHT22;10522;52.198;9.890;2023-08-24T04:24:00;14.90;99.90
20722;DHT22;10522;52.198;9.890;2023-08-24T04:26:25;15.00;99.90
20722;DHT22;10522;52.198;9.890;2023-08-24T04:28:51;15.00;99.90
20722;DHT22;10522;52.198;9.890;2023-08-24T04:31:16;15.10;99.90
20722;DHT22;10522;52.198;9.890;2023-08-24T04:33:42;15.10;99.90
20722;DHT22;10522;52.198;9.890;2023-08-24T04:36:08;15.10;99.90
20722;DHT22;10522;52.198;9.890;2023-08-24T04:38:33;15.20;99.90
20722;DHT22;10522;52.198;9.890;2023-08-24T04:40:59;15.20;99.90
20722;DHT22;10522;52.198;9.890;2023-08-24T04:43:25;15.20;99.90
20722;DHT22;10522;52.198;9.890;2023-08-24T04:45:53;15.30;99.90
20722;DHT22;10522;52.198;9.890;2023-08-24T04:48:20;15.40;99.90
20722;DHT22;10522;52.198;9.890;2023-08-24T04:50:46;15.50;99.90
20722;DHT22;10522;52.198;9.890;2023-08-24T04:53:17;15.60;99.90
20722;DHT22;10522;52.198;9.890;2023-08-24T04:55:43;15.60;99.90
20722;DHT22;10522;52.198;9.890;2023-08-24T04:58:10;15.70;99.90
20722;DHT22;10522;52.198;9.890;2023-08-24T05:00:36;15.70;99.90
20722;DHT22;10522;52.198;9.890;2023-08-24T05:03:06;15.80;99.90
20722;DHT22;10522;52.198;9.890;2023-08-24T05:05:33;15.90;99.90
20722;DHT22;10522;52.198;9.890;2023-08-24T05:08:00;15.90;99.90
20722;DHT22;10522;52.198;9.890;2023-08-24T05:10:30;16.10;99.90
20722;DHT22;10522;52.198;9.890;2023-08-24T05:12:56;16.20;99.90
20722;DHT22;10522;52.198;9.890;2023-08-24T05:15:22;16.30;99.90
20722;DHT22;10522;52.198;9.890;2023-08-24T05:17:47;16.40;99.90
20722;DHT22;10522;52.198;9.890;2023-08-24T05:20:13;16.50;99.90
20722;DHT22;10522;52.198;9.890;2023-08-24T05:22:39;16.60;99.90
20722;DHT22;10522;52.198;9.890;2023-08-24T05:25:06;16.60;99.90
20722;DHT22;10522;52.198;9.890;2023-08-24T05:27:32;16.60;99.90
20722;DHT22;10522;52.198;9.890;2023-08-24T05:29:57;16.60;99.90
20722;DHT22;10522;52.198;9.890;2023-08-24T05:32:23;16.70;99.90
20722;DHT22;10522;52.198;9.890;2023-08-24T05:34:49;16.70;99.90
20722;DHT22;10522;52.198;9.890;2023-08-24T05:37:15;16.70;99.90
20722;DHT22;10522;52.198;9.890;2023-08-24T05:39:40;16.70;99.90
20722;DHT22;10522;52.198;9.890;2023-08-24T05:42:07;16.70;99.90
20722;DHT22;10522;52.198;9.890;2023-08-24T05:44:33;16.80;99.90
20722;DHT22;10522;52.198;9.890;2023-08-24T05:46:59;16.90;99.90
20722;DHT22;10522;52.198;9.890;2023-08-24T05:49:24;17.00;99.90
20722;DHT22;10522;52.198;9.890;2023-08-24T05:51:51;17.00;99.90
20722;DHT22;10522;52.198;9.890;2023-08-24T05:54:17;17.00;99.90
20722;DHT22;10522;52.198;9.890;2023-08-24T05:56:47;17.00;99.90
20722;DHT22;10522;52.198;9.890;2023-08-24T05:59:14;17.00;99.90
20722;DHT22;10522;52.198;9.890;2023-08-24T06:01:40;17.10;99.90
20722;DHT22;10522;52.198;9.890;2023-08-24T06:04:07;17.10;99.90
20722;DHT22;10522;52.198;9.890;2023-08-24T06:06:33;17.00;99.90
20722;DHT22;10522;52.198;9.890;2023-08-24T06:08:58;17.00;99.90
20722;DHT22;10522;52.198;9.890;2023-08-24T06:11:24;17.00;99.90
20722;DHT22;10522;52.198;9.890;2023-08-24T06:13:49;17.00;99.90
20722;DHT22;10522;52.198;9.890;2023-08-24T06:16:17;16.90;99.90
20722;DHT22;10522;52.198;9.890;2023-08-24T06:18:43;17.00;99.90
20722;DHT22;10522;52.198;9.890;2023-08-24T06:21:09;17.10;99.90
20722;DHT22;10522;52.198;9.890;2023-08-24T06:23:35;17.10;99.90
20722;DHT22;10522;52.198;9.890;2023-08-24T06:26:00;17.20;99.90
20722;DHT22;10522;52.198;9.890;2023-08-24T06:28:26;17.20;99.90
20722;DHT22;10522;52.198;9.890;2023-08-24T06:30:52;17.30;99.90
20722;DHT22;10522;52.198;9.890;2023-08-24T06:33:20;17.20;99.90
20722;DHT22;10522;52.198;9.890;2023-08-24T06:35:46;17.30;99.90
20722;DHT22;10522;52.198;9.890;2023-08-24T06:38:13;17.40;99.90
20722;DHT22;10522;52.198;9.890;2023-08-24T06:40:39;17.40;99.90
20722;DHT22;10522;52.198;9.890;2023-08-24T06:43:04;17.40;99.90
20722;DHT22;10522;52.198;9.890;2023-08-24T06:45:31;17.50;99.90
20722;DHT22;10522;52.198;9.890;2023-08-24T06:47:57;17.70;99.90
20722;DHT22;10522;52.198;9.890;2023-08-24T06:50:22;17.70;99.90
20722;DHT22;10522;52.198;9.890;2023-08-24T06:52:48;17.70;99.90
20722;DHT22;10522;52.198;9.890;2023-08-24T06:55:14;17.70;99.90
20722;DHT22;10522;52.198;9.890;2023-08-24T06:57:40;17.80;99.90
20722;DHT22;10522;52.198;9.890;2023-08-24T07:00:06;17.80;99.90
20722;DHT22;10522;52.198;9.890;2023-08-24T07:02:35;17.80;99.90
20722;DHT22;10522;52.198;9.890;2023-08-24T07:05:00;17.90;99.90
20722;DHT22;10522;52.198;9.890;2023-08-24T07:07:26;18.10;99.90
20722;DHT22;10522;52.198;9.890;2023-08-24T07:09:52;18.10;99.90
20722;DHT22;10522;52.198;9.890;2023-08-24T07:12:17;18.30;99.90
20722;DHT22;10522;52.198;9.890;2023-08-24T07:14:43;18.40;99.90
20722;DHT22;10522;52.198;9.890;2023-08-24T07:17:10;18.50;99.90
20722;DHT22;10522;52.198;9.890;2023-08-24T07:19:36;18.60;99.90
20722;DHT22;10522;52.198;9.890;2023-08-24T07:22:01;18.70;99.90
20722;DHT22;10522;52.198;9.890;2023-08-24T07:24:27;18.70;99.90
20722;DHT22;10522;52.198;9.890;2023-08-24T07:26:54;19.00;99.90
20722;DHT22;10522;52.198;9.890;2023-08-24T07:29:23;19.30;99.90
20722;DHT22;10522;52.198;9.890;2023-08-24T07:31:48;19.60;99.90
20722;DHT22;10522;52.198;9.890;2023-08-24T07:34:14;19.70;99.90
20722;DHT22;10522;52.198;9.890;2023-08-24T07:36:41;19.90;99.90
20722;DHT22;10522;52.198;9.890;2023-08-24T07:39:13;20.30;99.90
20722;DHT22;10522;52.198;9.890;2023-08-24T07:44:51;21.10;99.90
20722;DHT22;10522;52.198;9.890;2023-08-24T07:47:17;21.30;99.90
20722;DHT22;10522;52.198;9.890;2023-08-24T07:49:43;21.50;99.90
20722;DHT22;10522;52.198;9.890;2023-08-24T07:52:11;21.60;99.90
20722;DHT22;10522;52.198;9.890;2023-08-24T07:54:40;21.60;99.90
20722;DHT22;10522;52.198;9.890;2023-08-24T07:57:06;21.70;99.90
20722;DHT22;10522;52.198;9.890;2023-08-24T07:59:32;21.60;99.90
20722;DHT22;10522;52.198;9.890;2023-08-24T08:01:58;21.70;99.90
20722;DHT22;10522;52.198;9.890;2023-08-24T08:04:24;21.60;99.90
20722;DHT22;10522;52.198;9.890;2023-08-24T08:06:49;21.70;99.90
20722;DHT22;10522;52.198;9.890;2023-08-24T08:09:15;21.70;99.90
20722;DHT22;10522;52.198;9.890;2023-08-24T08:11:42;21.70;99.90
20722;DHT22;10522;52.198;9.890;2023-08-24T08:14:08;21.80;99.90
20722;DHT22;10522;52.198;9.890;2023-08-24T08:16:34;21.60;99.90
20722;DHT22;10522;52.198;9.890;2023-08-24T08:19:01;21.70;99.90
20722;DHT22;10522;52.198;9.890;2023-08-24T08:21:27;21.80;99.90
20722;DHT22;10522;52.198;9.890;2023-08-24T08:23:53;22.10;99.90
20722;DHT22;10522;52.198;9.890;2023-08-24T08:26:19;22.30;99.90
20722;DHT22;10522;52.198;9.890;2023-08-24T08:28:44;22.60;99.90
20722;DHT22;10522;52.198;9.890;2023-08-24T08:31:10;22.90;99.90
20722;DHT22;10522;52.198;9.890;2023-08-24T08:33:36;23.20;99.90
20722;DHT22;10522;52.198;9.890;2023-08-24T08:36:01;23.50;99.90
20722;DHT22;10522;52.198;9.890;2023-08-24T08:38:28;23.60;99.90
20722;DHT22;10522;52.198;9.890;2023-08-24T08:40:54;23.80;99.90
20722;DHT22;10522;52.198;9.890;2023-08-24T08:43:22;23.90;99.90
20722;DHT22;10522;52.198;9.890;2023-08-24T08:45:49;24.10;99.90
20722;DHT22;10522;52.198;9.890;2023-08-24T08:48:16;24.30;99.90
20722;DHT22;10522;52.198;9.890;2023-08-24T08:50:43;24.10;99.90
20722;DHT22;10522;52.198;9.890;2023-08-24T08:53:08;24.30;99.90
20722;DHT22;10522;52.198;9.890;2023-08-24T08:55:34;24.30;99.90
20722;DHT22;10522;52.198;9.890;2023-08-24T08:58:00;24.70;99.90
20722;DHT22;10522;52.198;9.890;2023-08-24T09:00:28;24.80;99.90
20722;DHT22;10522;52.198;9.890;2023-08-24T09:02:54;24.30;99.90
20722;DHT22;10522;52.198;9.890;2023-08-24T09:05:22;24.30;99.90
20722;DHT22;10522;52.198;9.890;2023-08-24T09:07:52;24.20;99.90
20722;DHT22;10522;52.198;9.890;2023-08-24T09:10:18;24.20;99.90
20722;DHT22;10522;52.198;9.890;2023-08-24T09:12:44;24.20;99.90
20722;DHT22;10522;52.198;9.890;2023-08-24T09:15:10;24.50;99.90
20722;DHT22;10522;52.198;9.890;2023-08-24T09:17:35;25.00;99.90
20722;DHT22;10522;52.198;9.890;2023-08-24T09:20:06;25.30;99.90
20722;DHT22;10522;52.198;9.890;2023-08-24T09:22:40;25.50;99.90
20722;DHT22;10522;52.198;9.890;2023-08-24T09:25:10;25.70;99.90
20722;DHT22;10522;52.198;9.890;2023-08-24T09:27:36;25.70;99.90
20722;DHT22;10522;52.198;9.890;2023-08-24T09:30:02;25.40;99.90
20722;DHT22;10522;52.198;9.890;2023-08-24T09:32:29;25.50;99.90
20722;DHT22;10522;52.198;9.890;2023-08-24T09:34:55;25.60;99.90
20722;DHT22;10522;52.198;9.890;2023-08-24T09:37:21;25.60;99.90
20722;DHT22;10522;52.198;9.890;2023-08-24T09:39:47;25.70;99.90
20722;DHT22;10522;52.198;9.890;2023-08-24T09:42:13;25.60;99.90
20722;DHT22;10522;52.198;9.890;2023-08-24T09:44:45;25.50;99.90
20722;DHT22;10522;52.198;9.890;2023-08-24T09:47:11;25.40;99.90
20722;DHT22;10522;52.198;9.890;2023-08-24T09:49:37;25.70;99.90
20722;DHT22;10522;52.198;9.890;2023-08-24T09:52:07;25.70;99.90
20722;DHT22;10522;52.198;9.890;2023-08-24T09:54:36;25.70;99.90
20722;DHT22;10522;52.198;9.890;2023-08-24T09:57:02;25.80;99.90
20722;DHT22;10522;52.198;9.890;2023-08-24T09:59:31;26.00;99.90
20722;DHT22;10522;52.198;9.890;2023-08-24T10:01:59;26.00;99.90
20722;DHT22;10522;52.198;9.890;2023-08-24T10:04:29;25.90;99.90
20722;DHT22;10522;52.198;9.890;2023-08-24T10:07:13;25.90;99.90
20722;DHT22;10522;52.198;9.890;2023-08-24T10:10:03;26.00;99.90
20722;DHT22;10522;52.198;9.890;2023-08-24T10:12:35;26.10;99.90
20722;DHT22;10522;52.198;9.890;2023-08-24T10:15:02;26.10;99.90
20722;DHT22;10522;52.198;9.890;2023-08-24T10:17:30;26.10;99.90
20722;DHT22;10522;52.198;9.890;2023-08-24T10:19:58;26.20;99.90
20722;DHT22;10522;52.198;9.890;2023-08-24T10:22:27;26.30;99.90
20722;DHT22;10522;52.198;9.890;2023-08-24T10:24:54;26.10;99.90
20722;DHT22;10522;52.198;9.890;2023-08-24T10:27:22;26.10;99.90
20722;DHT22;10522;52.198;9.890;2023-08-24T10:29:48;26.20;99.90
20722;DHT22;10522;52.198;9.890;2023-08-24T10:32:14;26.20;99.90
20722;DHT22;10522;52.198;9.890;2023-08-24T10:34:40;26.10;99.90
20722;DHT22;10522;52.198;9.890;2023-08-24T10:37:10;26.10;99.90
20722;DHT22;10522;52.198;9.890;2023-08-24T10:39:37;26.20;99.90
20722;DHT22;10522;52.198;9.890;2023-08-24T10:42:03;26.40;99.90
20722;DHT22;10522;52.198;9.890;2023-08-24T10:44:37;26.50;99.90
20722;DHT22;10522;52.198;9.890;2023-08-24T10:47:22;26.40;99.90
20722;DHT22;10522;52.198;9.890;2023-08-24T10:52:23;26.40;99.90
20722;DHT22;10522;52.198;9.890;2023-08-24T10:54:51;26.50;99.90
20722;DHT22;10522;52.198;9.890;2023-08-24T10:57:37;26.60;99.90
20722;DHT22;10522;52.198;9.890;2023-08-24T11:00:10;26.90;99.90
20722;DHT22;10522;52.198;9.890;2023-08-24T11:07:58;26.90;99.90
20722;DHT22;10522;52.198;9.890;2023-08-24T11:13:17;27.00;99.90
20722;DHT22;10522;52.198;9.890;2023-08-24T11:15:49;27.10;99.90
20722;DHT22;10522;52.198;9.890;2023-08-24T11:18:27;27.10;99.90
20722;DHT22;10522;52.198;9.890;2023-08-24T11:21:07;27.30;99.90
20722;DHT22;10522;52.198;9.890;2023-08-24T11:23:33;27.30;99.90
20722;DHT22;10522;52.198;9.890;2023-08-24T11:36:21;28.10;99.90
20722;DHT22;10522;52.198;9.890;2023-08-24T11:38:51;28.20;99.90
20722;DHT22;10522;52.198;9.890;2023-08-24T11:41:18;28.40;99.90
20722;DHT22;10522;52.198;9.890;2023-08-24T11:43:44;28.60;99.90
20722;DHT22;10522;52.198;9.890;2023-08-24T11:46:11;28.50;99.90
20722;DHT22;10522;52.198;9.890;2023-08-24T11:48:38;28.50;99.90
20722;DHT22;10522;52.198;9.890;2023-08-24T11:51:08;28.40;99.90
20722;DHT22;10522;52.198;9.890;2023-08-24T11:53:37;28.20;99.90
20722;DHT22;10522;52.198;9.890;2023-08-24T11:56:03;28.30;99.90
20722;DHT22;10522;52.198;9.890;2023-08-24T11:58:32;28.50;99.90
20722;DHT22;10522;52.198;9.890;2023-08-24T12:01:00;28.60;99.90
20722;DHT22;10522;52.198;9.890;2023-08-24T12:03:27;28.50;99.90
20722;DHT22;10522;52.198;9.890;2023-08-24T12:05:54;28.80;99.90
20722;DHT22;10522;52.198;9.890;2023-08-24T12:08:23;28.80;99.90
20722;DHT22;10522;52.198;9.890;2023-08-24T12:10:49;28.90;99.90
20722;DHT22;10522;52.198;9.890;2023-08-24T12:13:14;29.10;99.90
20722;DHT22;10522;52.198;9.890;2023-08-24T12:15:41;29.10;99.90
20722;DHT22;10522;52.198;9.890;2023-08-24T12:18:08;29.10;99.90
20722;DHT22;10522;52.198;9.890;2023-08-24T12:20:33;29.10;99.90
20722;DHT22;10522;52.198;9.890;2023-08-24T12:22:59;29.00;99.90
20722;DHT22;10522;52.198;9.890;2023-08-24T12:25:25;29.00;99.90
20722;DHT22;10522;52.198;9.890;2023-08-24T12:28:10;29.10;99.90
20722;DHT22;10522;52.198;9.890;2023-08-24T12:30:52;28.80;99.90
20722;DHT22;10522;52.198;9.890;2023-08-24T12:33:31;28.80;99.90
20722;DHT22;10522;52.198;9.890;2023-08-24T12:35:57;28.90;99.90
20722;DHT22;10522;52.198;9.890;2023-08-24T12:38:26;28.90;99.90
20722;DHT22;10522;52.198;9.890;2023-08-24T12:40:52;29.10;99.90
20722;DHT22;10522;52.198;9.890;2023-08-24T12:43:19;29.30;99.90
20722;DHT22;10522;52.198;9.890;2023-08-24T12:45:44;29.50;99.90
20722;DHT22;10522;52.198;9.890;2023-08-24T12:48:11;29.60;99.90
20722;DHT22;10522;52.198;9.890;2023-08-24T12:50:38;29.30;99.90
20722;DHT22;10522;52.198;9.890;2023-08-24T12:53:04;29.20;99.90
20722;DHT22;10522;52.198;9.890;2023-08-24T12:55:33;29.20;99.90
20722;DHT22;10522;52.198;9.890;2023-08-24T12:57:59;29.30;99.90
20722;DHT22;10522;52.198;9.890;2023-08-24T13:00:24;29.50;99.90
20722;DHT22;10522;52.198;9.890;2023-08-24T13:02:52;29.40;99.90
20722;DHT22;10522;52.198;9.890;2023-08-24T13:05:17;29.30;99.90
20722;DHT22;10522;52.198;9.890;2023-08-24T13:07:43;29.40;99.90
20722;DHT22;10522;52.198;9.890;2023-08-24T13:10:09;29.50;99.90
20722;DHT22;10522;52.198;9.890;2023-08-24T13:12:37;29.70;99.90
20722;DHT22;10522;52.198;9.890;2023-08-24T13:15:03;29.60;99.90
20722;DHT22;10522;52.198;9.890;2023-08-24T13:26:18;29.00;99.90
20722;DHT22;10522;52.198;9.890;2023-08-24T13:28:45;29.40;99.90
20722;DHT22;10522;52.198;9.890;2023-08-24T13:31:11;29.50;99.90
20722;DHT22;10522;52.198;9.890;2023-08-24T13:33:36;29.80;99.90
20722;DHT22;10522;52.198;9.890;2023-08-24T13:36:02;29.80;99.90
20722;DHT22;10522;52.198;9.890;2023-08-24T13:38:29;30.20;99.90
20722;DHT22;10522;52.198;9.890;2023-08-24T13:40:54;30.10;99.90
20722;DHT22;10522;52.198;9.890;2023-08-24T13:43:33;30.10;99.90
20722;DHT22;10522;52.198;9.890;2023-08-24T13:45:59;29.80;99.90
20722;DHT22;10522;52.198;9.890;2023-08-24T13:51:02;30.00;99.90
20722;DHT22;10522;52.198;9.890;2023-08-24T13:53:28;30.20;99.90
20722;DHT22;10522;52.198;9.890;2023-08-24T13:55:53;30.10;99.90
20722;DHT22;10522;52.198;9.890;2023-08-24T14:01:22;30.10;99.90
20722;DHT22;10522;52.198;9.890;2023-08-24T14:03:51;29.40;99.90
20722;DHT22;10522;52.198;9.890;2023-08-24T14:09:00;28.90;99.90
20722;DHT22;10522;52.198;9.890;2023-08-24T14:11:25;28.70;99.90
20722;DHT22;10522;52.198;9.890;2023-08-24T14:13:51;28.70;99.90
20722;DHT22;10522;52.198;9.890;2023-08-24T14:16:17;28.80;99.90
20722;DHT22;10522;52.198;9.890;2023-08-24T14:18:44;28.60;99.90
20722;DHT22;10522;52.198;9.890;2023-08-24T14:21:10;28.60;99.90
20722;DHT22;10522;52.198;9.890;2023-08-24T14:23:36;28.60;99.90
20722;DHT22;10522;52.198;9.890;2023-08-24T14:26:01;28.70;99.90
20722;DHT22;10522;52.198;9.890;2023-08-24T14:28:53;28.60;99.90
20722;DHT22;10522;52.198;9.890;2023-08-24T14:31:21;28.60;99.90
20722;DHT22;10522;52.198;9.890;2023-08-24T14:33:46;28.60;99.90
20722;DHT22;10522;52.198;9.890;2023-08-24T14:36:12;28.70;99.90
20722;DHT22;10522;52.198;9.890;2023-08-24T14:38:41;28.90;99.90
20722;DHT22;10522;52.198;9.890;2023-08-24T14:41:11;28.90;99.90
20722;DHT22;10522;52.198;9.890;2023-08-24T14:43:37;28.70;99.90
20722;DHT22;10522;52.198;9.890;2023-08-24T14:46:03;28.90;99.90
20722;DHT22;10522;52.198;9.890;2023-08-24T14:48:29;29.10;99.90
20722;DHT22;10522;52.198;9.890;2023-08-24T14:50:55;29.00;99.90
20722;DHT22;10522;52.198;9.890;2023-08-24T14:53:22;28.80;99.90
20722;DHT22;10522;52.198;9.890;2023-08-24T14:55:48;28.60;99.90
20722;DHT22;10522;52.198;9.890;2023-08-24T14:58:14;28.50;99.90
20722;DHT22;10522;52.198;9.890;2023-08-24T15:00:39;28.30;99.90
20722;DHT22;10522;52.198;9.890;2023-08-24T15:03:05;28.10;99.90
20722;DHT22;10522;52.198;9.890;2023-08-24T15:05:31;28.00;99.90
20722;DHT22;10522;52.198;9.890;2023-08-24T15:07:56;27.80;99.90
20722;DHT22;10522;52.198;9.890;2023-08-24T15:10:22;27.70;99.90
20722;DHT22;10522;52.198;9.890;2023-08-24T15:12:48;27.60;99.90
20722;DHT22;10522;52.198;9.890;2023-08-24T15:15:14;27.50;99.90
20722;DHT22;10522;52.198;9.890;2023-08-24T15:17:43;27.40;99.90
20722;DHT22;10522;52.198;9.890;2023-08-24T15:20:10;27.50;99.90
20722;DHT22;10522;52.198;9.890;2023-08-24T15:22:38;27.50;99.90
20722;DHT22;10522;52.198;9.890;2023-08-24T15:25:06;27.30;99.90
20722;DHT22;10522;52.198;9.890;2023-08-24T15:27:32;27.30;99.90
20722;DHT22;10522;52.198;9.890;2023-08-24T15:29:57;27.20;99.90
20722;DHT22;10522;52.198;9.890;2023-08-24T15:32:23;27.20;99.90
20722;DHT22;10522;52.198;9.890;2023-08-24T15:34:49;27.20;99.90
20722;DHT22;10522;52.198;9.890;2023-08-24T15:37:15;27.10;99.90
20722;DHT22;10522;52.198;9.890;2023-08-24T15:39:40;27.10;99.90
20722;DHT22;10522;52.198;9.890;2023-08-24T15:42:07;27.00;99.90
20722;DHT22;10522;52.198;9.890;2023-08-24T15:44:33;27.00;99.90
20722;DHT22;10522;52.198;9.890;2023-08-24T15:46:59;26.90;99.90
20722;DHT22;10522;52.198;9.890;2023-08-24T15:49:25;26.90;99.90
20722;DHT22;10522;52.198;9.890;2023-08-24T15:51:52;26.70;99.90
20722;DHT22;10522;52.198;9.890;2023-08-24T15:54:18;26.60;99.90
20722;DHT22;10522;52.198;9.890;2023-08-24T15:56:44;26.60;99.90
20722;DHT22;10522;52.198;9.890;2023-08-24T15:59:18;26.40;99.90
20722;DHT22;10522;52.198;9.890;2023-08-24T16:01:44;26.30;99.90
20722;DHT22;10522;52.198;9.890;2023-08-24T16:04:10;26.20;99.90
20722;DHT22;10522;52.198;9.890;2023-08-24T16:06:36;26.10;99.90
20722;DHT22;10522;52.198;9.890;2023-08-24T16:09:02;26.00;99.90
20722;DHT22;10522;52.198;9.890;2023-08-24T16:11:29;26.00;99.90
20722;DHT22;10522;52.198;9.890;2023-08-24T16:13:54;26.00;99.90